Avilla, Missouri
Current Conditions -  °F | °C
As of 7:53 PM on Friday 24 Oct 2014 (Local Time) from KJLN Reporting Station
Clear Clear  
Wind Chill: 64°   Ceiling: Unl
Heat Index: 64°   Visibility: 10mi
Dew Point: 61°   Wind: 7mph
Humidity: 90%   Direction: 190°S
Pressure: 30.04"   Gusts: NA
Location:  37.2°N, 94.13°W
Report Text: KJLN 250053Z 19006KT 10SM CLR 18/16 A3004 RMK AO2 SLP169 T01780161
Loading
Personal Weather Stations






























Interactive Weather Map New forecast layout! Learn more

10-Day Weather Forecast

Advertisements
Track Severe Weather on mobile